sensor_id;sensor_type;location;lat;lon;timestamp;P1;durP1;ratioP1;P2;durP2;ratioP2
30243;SDS011;61465;53.652;9.792;2022-09-11T00:01:36;57.33;;;25.27;;
30243;SDS011;61465;53.652;9.792;2022-09-11T00:04:04;54.97;;;25.55;;
30243;SDS011;61465;53.652;9.792;2022-09-11T00:06:35;54.40;;;27.13;;
30243;SDS011;61465;53.652;9.792;2022-09-11T00:09:04;61.22;;;27.55;;
30243;SDS011;61465;53.652;9.792;2022-09-11T00:11:32;54.97;;;26.25;;
30243;SDS011;61465;53.652;9.792;2022-09-11T00:14:08;49.53;;;25.13;;
30243;SDS011;61465;53.652;9.792;2022-09-11T00:16:39;57.28;;;27.90;;
30243;SDS011;61465;53.652;9.792;2022-09-11T00:19:13;59.75;;;27.17;;
30243;SDS011;61465;53.652;9.792;2022-09-11T00:21:48;54.72;;;26.30;;
30243;SDS011;61465;53.652;9.792;2022-09-11T00:24:24;54.83;;;26.63;;
30243;SDS011;61465;53.652;9.792;2022-09-11T00:26:49;56.25;;;27.92;;
30243;SDS011;61465;53.652;9.792;2022-09-11T00:29:15;58.40;;;28.80;;
30243;SDS011;61465;53.652;9.792;2022-09-11T00:31:44;52.13;;;25.95;;
30243;SDS011;61465;53.652;9.792;2022-09-11T00:34:13;58.47;;;28.20;;
30243;SDS011;61465;53.652;9.792;2022-09-11T00:36:39;60.17;;;28.08;;
30243;SDS011;61465;53.652;9.792;2022-09-11T00:39:08;56.33;;;27.80;;
30243;SDS011;61465;53.652;9.792;2022-09-11T00:41:40;57.72;;;28.73;;
30243;SDS011;61465;53.652;9.792;2022-09-11T00:49:13;57.70;;;29.00;;
30243;SDS011;61465;53.652;9.792;2022-09-11T00:51:47;52.03;;;27.08;;
30243;SDS011;61465;53.652;9.792;2022-09-11T00:54:18;55.72;;;28.33;;
30243;SDS011;61465;53.652;9.792;2022-09-11T00:56:52;53.05;;;27.25;;
30243;SDS011;61465;53.652;9.792;2022-09-11T00:59:21;48.03;;;26.00;;
30243;SDS011;61465;53.652;9.792;2022-09-11T01:01:53;50.88;;;24.88;;
30243;SDS011;61465;53.652;9.792;2022-09-11T01:04:22;47.60;;;24.77;;
30243;SDS011;61465;53.652;9.792;2022-09-11T01:06:51;48.85;;;25.67;;
30243;SDS011;61465;53.652;9.792;2022-09-11T01:09:21;55.53;;;27.90;;
30243;SDS011;61465;53.652;9.792;2022-09-11T01:11:53;62.25;;;27.45;;
30243;SDS011;61465;53.652;9.792;2022-09-11T01:17:41;58.70;;;26.95;;
30243;SDS011;61465;53.652;9.792;2022-09-11T01:23:06;64.47;;;25.80;;
30243;SDS011;61465;53.652;9.792;2022-09-11T01:26:13;60.35;;;25.52;;
30243;SDS011;61465;53.652;9.792;2022-09-11T01:29:02;61.92;;;26.40;;
30243;SDS011;61465;53.652;9.792;2022-09-11T01:31:41;63.97;;;26.75;;
30243;SDS011;61465;53.652;9.792;2022-09-11T01:37:03;61.65;;;28.23;;
30243;SDS011;61465;53.652;9.792;2022-09-11T01:39:34;64.13;;;27.63;;
30243;SDS011;61465;53.652;9.792;2022-09-11T01:42:10;61.47;;;27.17;;
30243;SDS011;61465;53.652;9.792;2022-09-11T01:44:50;55.72;;;25.13;;
30243;SDS011;61465;53.652;9.792;2022-09-11T01:47:19;54.80;;;25.60;;
30243;SDS011;61465;53.652;9.792;2022-09-11T01:49:55;56.72;;;25.65;;
30243;SDS011;61465;53.652;9.792;2022-09-11T01:52:28;53.65;;;24.75;;
30243;SDS011;61465;53.652;9.792;2022-09-11T01:55:04;50.90;;;24.70;;
30243;SDS011;61465;53.652;9.792;2022-09-11T01:57:41;50.35;;;22.45;;
30243;SDS011;61465;53.652;9.792;2022-09-11T02:00:12;64.57;;;25.08;;
30243;SDS011;61465;53.652;9.792;2022-09-11T02:02:40;57.30;;;22.80;;
30243;SDS011;61465;53.652;9.792;2022-09-11T02:05:17;57.05;;;22.70;;
30243;SDS011;61465;53.652;9.792;2022-09-11T02:10:24;61.75;;;21.30;;
30243;SDS011;61465;53.652;9.792;2022-09-11T02:15:39;58.72;;;20.30;;
30243;SDS011;61465;53.652;9.792;2022-09-11T02:18:28;62.83;;;21.80;;
30243;SDS011;61465;53.652;9.792;2022-09-11T02:21:05;58.35;;;19.35;;
30243;SDS011;61465;53.652;9.792;2022-09-11T02:23:34;63.35;;;20.58;;
30243;SDS011;61465;53.652;9.792;2022-09-11T02:26:09;60.92;;;19.70;;
30243;SDS011;61465;53.652;9.792;2022-09-11T02:28:41;63.33;;;20.65;;
30243;SDS011;61465;53.652;9.792;2022-09-11T02:31:11;57.42;;;19.15;;
30243;SDS011;61465;53.652;9.792;2022-09-11T02:33:40;60.25;;;20.33;;
30243;SDS011;61465;53.652;9.792;2022-09-11T02:41:41;60.95;;;20.13;;
30243;SDS011;61465;53.652;9.792;2022-09-11T02:44:29;57.22;;;19.30;;
30243;SDS011;61465;53.652;9.792;2022-09-11T02:52:43;59.47;;;22.45;;
30243;SDS011;61465;53.652;9.792;2022-09-11T02:55:30;48.03;;;20.58;;
30243;SDS011;61465;53.652;9.792;2022-09-11T02:58:06;52.92;;;21.05;;
30243;SDS011;61465;53.652;9.792;2022-09-11T03:00:57;53.25;;;21.45;;
30243;SDS011;61465;53.652;9.792;2022-09-11T03:03:35;52.28;;;20.77;;
30243;SDS011;61465;53.652;9.792;2022-09-11T03:06:02;63.92;;;21.60;;
30243;SDS011;61465;53.652;9.792;2022-09-11T03:08:28;44.70;;;20.13;;
30243;SDS011;61465;53.652;9.792;2022-09-11T03:11:04;45.75;;;20.40;;
30243;SDS011;61465;53.652;9.792;2022-09-11T03:13:35;47.55;;;19.60;;
30243;SDS011;61465;53.652;9.792;2022-09-11T03:16:05;44.33;;;19.50;;
30243;SDS011;61465;53.652;9.792;2022-09-11T03:18:31;51.70;;;20.60;;
30243;SDS011;61465;53.652;9.792;2022-09-11T03:20:58;49.85;;;20.27;;
30243;SDS011;61465;53.652;9.792;2022-09-11T03:25:54;45.05;;;18.13;;
30243;SDS011;61465;53.652;9.792;2022-09-11T03:28:20;46.45;;;19.63;;
30243;SDS011;61465;53.652;9.792;2022-09-11T03:30:47;47.47;;;20.20;;
30243;SDS011;61465;53.652;9.792;2022-09-11T03:33:14;43.38;;;18.73;;
30243;SDS011;61465;53.652;9.792;2022-09-11T03:35:43;40.35;;;18.52;;
30243;SDS011;61465;53.652;9.792;2022-09-11T03:38:11;46.25;;;19.80;;
30243;SDS011;61465;53.652;9.792;2022-09-11T03:40:43;50.47;;;18.40;;
30243;SDS011;61465;53.652;9.792;2022-09-11T03:43:09;40.63;;;17.35;;
30243;SDS011;61465;53.652;9.792;2022-09-11T03:45:40;46.83;;;19.98;;
30243;SDS011;61465;53.652;9.792;2022-09-11T03:48:11;41.03;;;17.88;;
30243;SDS011;61465;53.652;9.792;2022-09-11T03:50:37;43.63;;;18.05;;
30243;SDS011;61465;53.652;9.792;2022-09-11T03:53:03;39.05;;;17.40;;
30243;SDS011;61465;53.652;9.792;2022-09-11T03:55:34;48.22;;;19.15;;
30243;SDS011;61465;53.652;9.792;2022-09-11T03:58:00;42.42;;;18.48;;
30243;SDS011;61465;53.652;9.792;2022-09-11T04:00:26;40.38;;;18.45;;
30243;SDS011;61465;53.652;9.792;2022-09-11T04:02:52;56.87;;;20.63;;
30243;SDS011;61465;53.652;9.792;2022-09-11T04:05:22;44.72;;;18.65;;
30243;SDS011;61465;53.652;9.792;2022-09-11T04:07:52;51.42;;;18.98;;
30243;SDS011;61465;53.652;9.792;2022-09-11T04:10:19;48.95;;;20.05;;
30243;SDS011;61465;53.652;9.792;2022-09-11T04:12:47;45.65;;;19.13;;
30243;SDS011;61465;53.652;9.792;2022-09-11T04:15:13;48.15;;;19.05;;
30243;SDS011;61465;53.652;9.792;2022-09-11T04:17:44;52.23;;;20.40;;
30243;SDS011;61465;53.652;9.792;2022-09-11T04:20:18;53.92;;;20.95;;
30243;SDS011;61465;53.652;9.792;2022-09-11T04:22:46;48.65;;;20.30;;
30243;SDS011;61465;53.652;9.792;2022-09-11T04:25:12;56.60;;;22.20;;
30243;SDS011;61465;53.652;9.792;2022-09-11T04:27:38;59.78;;;20.58;;
30243;SDS011;61465;53.652;9.792;2022-09-11T04:30:11;49.13;;;20.33;;
30243;SDS011;61465;53.652;9.792;2022-09-11T04:32:37;47.50;;;19.60;;
30243;SDS011;61465;53.652;9.792;2022-09-11T04:35:10;56.60;;;21.15;;
30243;SDS011;61465;53.652;9.792;2022-09-11T04:37:39;48.65;;;20.95;;
30243;SDS011;61465;53.652;9.792;2022-09-11T04:40:04;50.42;;;20.02;;
30243;SDS011;61465;53.652;9.792;2022-09-11T04:42:36;55.70;;;21.05;;
30243;SDS011;61465;53.652;9.792;2022-09-11T04:45:01;49.45;;;19.65;;
30243;SDS011;61465;53.652;9.792;2022-09-11T04:47:31;49.33;;;19.92;;
30243;SDS011;61465;53.652;9.792;2022-09-11T04:49:59;42.38;;;18.85;;
30243;SDS011;61465;53.652;9.792;2022-09-11T04:52:25;46.13;;;18.45;;
30243;SDS011;61465;53.652;9.792;2022-09-11T04:55:00;44.13;;;18.38;;
30243;SDS011;61465;53.652;9.792;2022-09-11T04:57:28;40.75;;;17.20;;
30243;SDS011;61465;53.652;9.792;2022-09-11T04:59:57;31.20;;;14.10;;
30243;SDS011;61465;53.652;9.792;2022-09-11T05:02:23;44.25;;;17.63;;
30243;SDS011;61465;53.652;9.792;2022-09-11T05:04:51;43.97;;;18.15;;
30243;SDS011;61465;53.652;9.792;2022-09-11T05:07:23;42.60;;;18.13;;
30243;SDS011;61465;53.652;9.792;2022-09-11T05:09:54;37.70;;;18.27;;
30243;SDS011;61465;53.652;9.792;2022-09-11T05:12:22;34.83;;;17.98;;
30243;SDS011;61465;53.652;9.792;2022-09-11T05:14:52;35.45;;;17.55;;
30243;SDS011;61465;53.652;9.792;2022-09-11T05:17:27;33.55;;;16.95;;
30243;SDS011;61465;53.652;9.792;2022-09-11T05:20:01;36.13;;;18.77;;
30243;SDS011;61465;53.652;9.792;2022-09-11T05:22:30;34.75;;;17.90;;
30243;SDS011;61465;53.652;9.792;2022-09-11T05:24:57;31.80;;;17.23;;
30243;SDS011;61465;53.652;9.792;2022-09-11T05:27:23;29.75;;;15.85;;
30243;SDS011;61465;53.652;9.792;2022-09-11T05:29:51;33.70;;;16.83;;
30243;SDS011;61465;53.652;9.792;2022-09-11T05:32:17;32.33;;;16.53;;
30243;SDS011;61465;53.652;9.792;2022-09-11T05:34:47;31.48;;;16.45;;
30243;SDS011;61465;53.652;9.792;2022-09-11T05:37:15;29.40;;;16.00;;
30243;SDS011;61465;53.652;9.792;2022-09-11T05:39:46;35.78;;;16.10;;
30243;SDS011;61465;53.652;9.792;2022-09-11T05:42:15;27.65;;;16.48;;
30243;SDS011;61465;53.652;9.792;2022-09-11T05:44:44;29.75;;;15.75;;
30243;SDS011;61465;53.652;9.792;2022-09-11T05:47:12;30.13;;;15.05;;
30243;SDS011;61465;53.652;9.792;2022-09-11T05:49:41;23.15;;;13.70;;
30243;SDS011;61465;53.652;9.792;2022-09-11T05:52:09;26.83;;;14.70;;
30243;SDS011;61465;53.652;9.792;2022-09-11T05:54:38;26.17;;;14.32;;
30243;SDS011;61465;53.652;9.792;2022-09-11T05:57:04;25.37;;;14.13;;
30243;SDS011;61465;53.652;9.792;2022-09-11T05:59:30;26.23;;;14.20;;
30243;SDS011;61465;53.652;9.792;2022-09-11T06:01:56;29.97;;;15.37;;
30243;SDS011;61465;53.652;9.792;2022-09-11T06:04:24;24.80;;;14.20;;
30243;SDS011;61465;53.652;9.792;2022-09-11T06:06:53;19.33;;;11.23;;
30243;SDS011;61465;53.652;9.792;2022-09-11T06:09:25;22.92;;;12.85;;
30243;SDS011;61465;53.652;9.792;2022-09-11T06:11:51;20.73;;;12.23;;
30243;SDS011;61465;53.652;9.792;2022-09-11T06:14:17;21.30;;;12.53;;
30243;SDS011;61465;53.652;9.792;2022-09-11T06:16:43;21.83;;;13.05;;
30243;SDS011;61465;53.652;9.792;2022-09-11T06:19:11;27.20;;;13.90;;
30243;SDS011;61465;53.652;9.792;2022-09-11T06:21:37;19.60;;;11.52;;
30243;SDS011;61465;53.652;9.792;2022-09-11T06:24:03;21.45;;;11.73;;
30243;SDS011;61465;53.652;9.792;2022-09-11T06:26:34;18.85;;;10.82;;
30243;SDS011;61465;53.652;9.792;2022-09-11T06:29:00;19.27;;;11.83;;
30243;SDS011;61465;53.652;9.792;2022-09-11T06:31:28;31.20;;;16.30;;
30243;SDS011;61465;53.652;9.792;2022-09-11T06:33:56;20.65;;;12.23;;
30243;SDS011;61465;53.652;9.792;2022-09-11T06:36:25;18.55;;;10.35;;
30243;SDS011;61465;53.652;9.792;2022-09-11T06:38:51;16.58;;;9.93;;
30243;SDS011;61465;53.652;9.792;2022-09-11T06:41:18;17.63;;;10.15;;
30243;SDS011;61465;53.652;9.792;2022-09-11T06:43:45;18.17;;;11.20;;
30243;SDS011;61465;53.652;9.792;2022-09-11T06:46:16;19.20;;;11.07;;
30243;SDS011;61465;53.652;9.792;2022-09-11T06:48:44;18.48;;;10.35;;
30243;SDS011;61465;53.652;9.792;2022-09-11T06:53:52;17.38;;;10.30;;
30243;SDS011;61465;53.652;9.792;2022-09-11T06:56:19;17.90;;;10.73;;
30243;SDS011;61465;53.652;9.792;2022-09-11T07:01:12;18.05;;;10.75;;
30243;SDS011;61465;53.652;9.792;2022-09-11T07:03:52;17.40;;;9.63;;
30243;SDS011;61465;53.652;9.792;2022-09-11T07:06:19;16.20;;;9.43;;
30243;SDS011;61465;53.652;9.792;2022-09-11T07:08:52;14.10;;;9.07;;
30243;SDS011;61465;53.652;9.792;2022-09-11T07:11:30;15.77;;;9.32;;
30243;SDS011;61465;53.652;9.792;2022-09-11T07:13:57;14.98;;;9.77;;
30243;SDS011;61465;53.652;9.792;2022-09-11T07:16:29;12.63;;;8.23;;
30243;SDS011;61465;53.652;9.792;2022-09-11T07:18:55;12.10;;;7.07;;
30243;SDS011;61465;53.652;9.792;2022-09-11T07:21:23;12.13;;;8.05;;
30243;SDS011;61465;53.652;9.792;2022-09-11T07:23:50;12.02;;;6.75;;
30243;SDS011;61465;53.652;9.792;2022-09-11T07:26:18;12.55;;;8.05;;
30243;SDS011;61465;53.652;9.792;2022-09-11T07:28:54;14.50;;;8.15;;
30243;SDS011;61465;53.652;9.792;2022-09-11T07:33:48;9.73;;;6.75;;
30243;SDS011;61465;53.652;9.792;2022-09-11T07:38:41;10.93;;;6.63;;
30243;SDS011;61465;53.652;9.792;2022-09-11T07:41:08;11.93;;;7.95;;
30243;SDS011;61465;53.652;9.792;2022-09-11T07:43:35;25.42;;;14.55;;
30243;SDS011;61465;53.652;9.792;2022-09-11T07:46:02;20.02;;;11.60;;
30243;SDS011;61465;53.652;9.792;2022-09-11T07:48:29;14.63;;;8.43;;
30243;SDS011;61465;53.652;9.792;2022-09-11T07:50:58;10.82;;;7.00;;
30243;SDS011;61465;53.652;9.792;2022-09-11T07:53:32;10.77;;;7.32;;
30243;SDS011;61465;53.652;9.792;2022-09-11T07:56:05;10.02;;;7.50;;
30243;SDS011;61465;53.652;9.792;2022-09-11T07:58:36;9.90;;;7.07;;
30243;SDS011;61465;53.652;9.792;2022-09-11T08:01:04;9.60;;;6.18;;
30243;SDS011;61465;53.652;9.792;2022-09-11T08:03:31;12.35;;;7.95;;
30243;SDS011;61465;53.652;9.792;2022-09-11T08:08:24;26.42;;;14.25;;
30243;SDS011;61465;53.652;9.792;2022-09-11T08:10:52;11.18;;;7.85;;
30243;SDS011;61465;53.652;9.792;2022-09-11T08:13:25;9.23;;;6.43;;
30243;SDS011;61465;53.652;9.792;2022-09-11T08:15:51;13.88;;;6.47;;
30243;SDS011;61465;53.652;9.792;2022-09-11T08:18:16;5.83;;;4.87;;
30243;SDS011;61465;53.652;9.792;2022-09-11T08:20:42;6.73;;;5.33;;
30243;SDS011;61465;53.652;9.792;2022-09-11T08:23:08;7.32;;;5.25;;
30243;SDS011;61465;53.652;9.792;2022-09-11T08:25:35;9.27;;;4.80;;
30243;SDS011;61465;53.652;9.792;2022-09-11T08:28:01;5.93;;;4.82;;
30243;SDS011;61465;53.652;9.792;2022-09-11T08:30:27;6.05;;;5.07;;
30243;SDS011;61465;53.652;9.792;2022-09-11T08:32:53;5.43;;;4.30;;
30243;SDS011;61465;53.652;9.792;2022-09-11T08:35:19;6.77;;;5.07;;
30243;SDS011;61465;53.652;9.792;2022-09-11T08:37:44;6.23;;;3.93;;
30243;SDS011;61465;53.652;9.792;2022-09-11T08:40:10;8.30;;;5.30;;
30243;SDS011;61465;53.652;9.792;2022-09-11T08:45:09;8.48;;;5.57;;
30243;SDS011;61465;53.652;9.792;2022-09-11T08:47:52;6.47;;;4.72;;
30243;SDS011;61465;53.652;9.792;2022-09-11T08:50:31;5.47;;;4.10;;
30243;SDS011;61465;53.652;9.792;2022-09-11T08:53:01;5.22;;;4.13;;
30243;SDS011;61465;53.652;9.792;2022-09-11T09:03:43;6.60;;;4.10;;
30243;SDS011;61465;53.652;9.792;2022-09-11T09:06:24;7.60;;;4.35;;
30243;SDS011;61465;53.652;9.792;2022-09-11T09:18:42;4.15;;;3.67;;
30243;SDS011;61465;53.652;9.792;2022-09-11T09:20:58;5.85;;;4.05;;
30243;SDS011;61465;53.652;9.792;2022-09-11T09:23:36;5.78;;;4.20;;
30243;SDS011;61465;53.652;9.792;2022-09-11T09:26:12;4.95;;;4.10;;
30243;SDS011;61465;53.652;9.792;2022-09-11T09:28:45;4.13;;;3.42;;
30243;SDS011;61465;53.652;9.792;2022-09-11T09:31:16;5.00;;;3.85;;
30243;SDS011;61465;53.652;9.792;2022-09-11T09:36:35;5.75;;;3.40;;
30243;SDS011;61465;53.652;9.792;2022-09-11T09:39:10;5.30;;;4.07;;
30243;SDS011;61465;53.652;9.792;2022-09-11T09:41:48;4.85;;;3.33;;
30243;SDS011;61465;53.652;9.792;2022-09-11T09:44:39;4.55;;;3.35;;
30243;SDS011;61465;53.652;9.792;2022-09-11T09:49:42;6.10;;;2.88;;
30243;SDS011;61465;53.652;9.792;2022-09-11T09:52:22;3.22;;;2.60;;
30243;SDS011;61465;53.652;9.792;2022-09-11T09:55:01;4.05;;;3.03;;
30243;SDS011;61465;53.652;9.792;2022-09-11T09:57:36;3.92;;;2.90;;
30243;SDS011;61465;53.652;9.792;2022-09-11T10:02:46;4.65;;;2.65;;
30243;SDS011;61465;53.652;9.792;2022-09-11T10:05:26;3.47;;;2.05;;
30243;SDS011;61465;53.652;9.792;2022-09-11T10:08:01;2.15;;;1.90;;
30243;SDS011;61465;53.652;9.792;2022-09-11T10:12:58;2.25;;;1.80;;
30243;SDS011;61465;53.652;9.792;2022-09-11T10:15:29;2.25;;;1.80;;
30243;SDS011;61465;53.652;9.792;2022-09-11T10:18:21;2.38;;;1.77;;
30243;SDS011;61465;53.652;9.792;2022-09-11T10:20:50;2.00;;;1.83;;
30243;SDS011;61465;53.652;9.792;2022-09-11T10:23:23;3.20;;;1.70;;
30243;SDS011;61465;53.652;9.792;2022-09-11T10:25:50;3.78;;;2.65;;
30243;SDS011;61465;53.652;9.792;2022-09-11T10:28:17;2.88;;;1.67;;
30243;SDS011;61465;53.652;9.792;2022-09-11T10:30:59;2.33;;;2.00;;
30243;SDS011;61465;53.652;9.792;2022-09-11T10:33:29;4.15;;;2.20;;
30243;SDS011;61465;53.652;9.792;2022-09-11T10:35:59;2.10;;;1.90;;
30243;SDS011;61465;53.652;9.792;2022-09-11T10:41:13;1.88;;;1.67;;
30243;SDS011;61465;53.652;9.792;2022-09-11T10:44:16;1.77;;;1.67;;
30243;SDS011;61465;53.652;9.792;2022-09-11T10:46:36;3.15;;;1.65;;
30243;SDS011;61465;53.652;9.792;2022-09-11T10:51:30;4.77;;;1.50;;
30243;SDS011;61465;53.652;9.792;2022-09-11T10:59:21;3.90;;;1.83;;
30243;SDS011;61465;53.652;9.792;2022-09-11T11:01:55;3.83;;;1.73;;
30243;SDS011;61465;53.652;9.792;2022-09-11T11:04:20;1.80;;;1.60;;
30243;SDS011;61465;53.652;9.792;2022-09-11T11:06:54;2.05;;;1.55;;
30243;SDS011;61465;53.652;9.792;2022-09-11T11:09:29;3.38;;;1.50;;
30243;SDS011;61465;53.652;9.792;2022-09-11T11:12:06;4.95;;;2.20;;
30243;SDS011;61465;53.652;9.792;2022-09-11T11:31:54;2.70;;;1.10;;
30243;SDS011;61465;53.652;9.792;2022-09-11T11:37:31;3.65;;;2.30;;
30243;SDS011;61465;53.652;9.792;2022-09-11T11:40:12;4.32;;;1.25;;
30243;SDS011;61465;53.652;9.792;2022-09-11T11:42:55;1.35;;;1.25;;
30243;SDS011;61465;53.652;9.792;2022-09-11T11:47:58;1.70;;;1.60;;
30243;SDS011;61465;53.652;9.792;2022-09-11T11:50:33;2.58;;;1.42;;
30243;SDS011;61465;53.652;9.792;2022-09-11T12:01:17;3.47;;;1.47;;
30243;SDS011;61465;53.652;9.792;2022-09-11T12:03:59;2.00;;;1.15;;
30243;SDS011;61465;53.652;9.792;2022-09-11T12:06:32;3.40;;;1.17;;
30243;SDS011;61465;53.652;9.792;2022-09-11T12:08:59;1.50;;;1.05;;
30243;SDS011;61465;53.652;9.792;2022-09-11T12:11:28;3.15;;;1.83;;
30243;SDS011;61465;53.652;9.792;2022-09-11T12:13:56;1.63;;;1.52;;
30243;SDS011;61465;53.652;9.792;2022-09-11T12:16:26;1.38;;;1.02;;
30243;SDS011;61465;53.652;9.792;2022-09-11T12:18:59;1.90;;;1.30;;
30243;SDS011;61465;53.652;9.792;2022-09-11T12:21:32;1.45;;;1.35;;
30243;SDS011;61465;53.652;9.792;2022-09-11T12:26:26;1.15;;;1.08;;
30243;SDS011;61465;53.652;9.792;2022-09-11T12:34:17;4.20;;;3.10;;
30243;SDS011;61465;53.652;9.792;2022-09-11T12:37:18;1.45;;;1.30;;
30243;SDS011;61465;53.652;9.792;2022-09-11T12:52:29;1.48;;;1.30;;
30243;SDS011;61465;53.652;9.792;2022-09-11T12:58:05;2.47;;;1.15;;
30243;SDS011;61465;53.652;9.792;2022-09-11T13:00:46;0.98;;;0.95;;
30243;SDS011;61465;53.652;9.792;2022-09-11T13:03:16;2.50;;;1.08;;
30243;SDS011;61465;53.652;9.792;2022-09-11T13:05:54;2.35;;;1.40;;
30243;SDS011;61465;53.652;9.792;2022-09-11T13:08:24;1.35;;;1.13;;
30243;SDS011;61465;53.652;9.792;2022-09-11T13:10:52;2.65;;;1.40;;
30243;SDS011;61465;53.652;9.792;2022-09-11T13:13:38;2.17;;;1.35;;
30243;SDS011;61465;53.652;9.792;2022-09-11T13:16:24;1.40;;;1.00;;
30243;SDS011;61465;53.652;9.792;2022-09-11T13:18:59;2.70;;;1.00;;
30243;SDS011;61465;53.652;9.792;2022-09-11T13:21:27;2.13;;;1.00;;
30243;SDS011;61465;53.652;9.792;2022-09-11T13:23:59;1.35;;;1.00;;
30243;SDS011;61465;53.652;9.792;2022-09-11T13:26:26;1.43;;;1.20;;
30243;SDS011;61465;53.652;9.792;2022-09-11T13:28:55;1.00;;;0.85;;
30243;SDS011;61465;53.652;9.792;2022-09-11T13:31:30;2.92;;;2.28;;
30243;SDS011;61465;53.652;9.792;2022-09-11T13:33:58;5.40;;;2.47;;
30243;SDS011;61465;53.652;9.792;2022-09-11T13:38:52;1.75;;;1.35;;
30243;SDS011;61465;53.652;9.792;2022-09-11T13:41:22;2.35;;;1.17;;
30243;SDS011;61465;53.652;9.792;2022-09-11T13:43:54;1.33;;;1.00;;
30243;SDS011;61465;53.652;9.792;2022-09-11T13:46:23;3.28;;;2.22;;
30243;SDS011;61465;53.652;9.792;2022-09-11T13:48:52;1.38;;;0.93;;
30243;SDS011;61465;53.652;9.792;2022-09-11T13:51:28;1.33;;;1.00;;
30243;SDS011;61465;53.652;9.792;2022-09-11T13:53:55;3.88;;;1.10;;
30243;SDS011;61465;53.652;9.792;2022-09-11T14:01:50;4.53;;;1.45;;
30243;SDS011;61465;53.652;9.792;2022-09-11T14:04:27;3.00;;;1.00;;
30243;SDS011;61465;53.652;9.792;2022-09-11T14:06:53;2.67;;;1.27;;
30243;SDS011;61465;53.652;9.792;2022-09-11T14:09:19;1.48;;;1.02;;
30243;SDS011;61465;53.652;9.792;2022-09-11T14:11:45;2.08;;;1.30;;
30243;SDS011;61465;53.652;9.792;2022-09-11T14:14:20;2.22;;;1.10;;
30243;SDS011;61465;53.652;9.792;2022-09-11T14:16:53;1.73;;;0.90;;
30243;SDS011;61465;53.652;9.792;2022-09-11T14:19:29;1.10;;;1.00;;
30243;SDS011;61465;53.652;9.792;2022-09-11T14:21:58;2.00;;;1.70;;
30243;SDS011;61465;53.652;9.792;2022-09-11T14:24:37;2.88;;;1.30;;
30243;SDS011;61465;53.652;9.792;2022-09-11T14:27:32;2.00;;;1.17;;
30243;SDS011;61465;53.652;9.792;2022-09-11T14:29:59;2.70;;;0.90;;
30243;SDS011;61465;53.652;9.792;2022-09-11T14:32:28;1.40;;;0.80;;
30243;SDS011;61465;53.652;9.792;2022-09-11T14:34:57;1.55;;;1.10;;
30243;SDS011;61465;53.652;9.792;2022-09-11T14:37:23;1.70;;;1.05;;
30243;SDS011;61465;53.652;9.792;2022-09-11T14:39:52;4.03;;;1.10;;
30243;SDS011;61465;53.652;9.792;2022-09-11T14:42:23;1.75;;;1.02;;
30243;SDS011;61465;53.652;9.792;2022-09-11T14:44:51;2.83;;;0.98;;
30243;SDS011;61465;53.652;9.792;2022-09-11T14:47:21;1.33;;;1.00;;
30243;SDS011;61465;53.652;9.792;2022-09-11T14:49:53;0.80;;;0.80;;
30243;SDS011;61465;53.652;9.792;2022-09-11T14:52:21;1.02;;;0.75;;
30243;SDS011;61465;53.652;9.792;2022-09-11T14:54:51;1.58;;;1.40;;
30243;SDS011;61465;53.652;9.792;2022-09-11T14:57:18;4.93;;;3.25;;
30243;SDS011;61465;53.652;9.792;2022-09-11T14:59:46;2.85;;;1.63;;
30243;SDS011;61465;53.652;9.792;2022-09-11T15:02:20;2.97;;;1.58;;
30243;SDS011;61465;53.652;9.792;2022-09-11T15:04:47;1.98;;;1.55;;
30243;SDS011;61465;53.652;9.792;2022-09-11T15:07:14;1.70;;;1.35;;
30243;SDS011;61465;53.652;9.792;2022-09-11T15:09:42;1.48;;;1.10;;
30243;SDS011;61465;53.652;9.792;2022-09-11T15:12:09;3.45;;;1.50;;
30243;SDS011;61465;53.652;9.792;2022-09-11T15:14:37;4.60;;;2.55;;
30243;SDS011;61465;53.652;9.792;2022-09-11T15:17:04;1.73;;;1.60;;
30243;SDS011;61465;53.652;9.792;2022-09-11T15:19:31;2.83;;;2.08;;
30243;SDS011;61465;53.652;9.792;2022-09-11T15:22:01;2.13;;;1.77;;
30243;SDS011;61465;53.652;9.792;2022-09-11T15:24:28;1.40;;;1.30;;
30243;SDS011;61465;53.652;9.792;2022-09-11T15:26:53;3.07;;;1.50;;
30243;SDS011;61465;53.652;9.792;2022-09-11T15:29:20;2.03;;;1.40;;
30243;SDS011;61465;53.652;9.792;2022-09-11T15:31:46;2.15;;;1.50;;
30243;SDS011;61465;53.652;9.792;2022-09-11T15:34:12;1.42;;;1.17;;
30243;SDS011;61465;53.652;9.792;2022-09-11T15:36:38;1.92;;;1.27;;
30243;SDS011;61465;53.652;9.792;2022-09-11T15:41:41;2.60;;;1.85;;
30243;SDS011;61465;53.652;9.792;2022-09-11T15:44:08;1.85;;;1.67;;
30243;SDS011;61465;53.652;9.792;2022-09-11T15:46:35;1.48;;;1.27;;
30243;SDS011;61465;53.652;9.792;2022-09-11T15:49:01;2.53;;;1.53;;
30243;SDS011;61465;53.652;9.792;2022-09-11T15:51:26;3.37;;;1.70;;
30243;SDS011;61465;53.652;9.792;2022-09-11T15:53:52;3.78;;;1.63;;
30243;SDS011;61465;53.652;9.792;2022-09-11T15:56:23;1.70;;;1.58;;
30243;SDS011;61465;53.652;9.792;2022-09-11T15:58:49;2.77;;;1.60;;
30243;SDS011;61465;53.652;9.792;2022-09-11T16:03:49;2.78;;;1.60;;
30243;SDS011;61465;53.652;9.792;2022-09-11T16:06:17;3.05;;;1.15;;
30243;SDS011;61465;53.652;9.792;2022-09-11T16:08:43;2.58;;;1.58;;
30243;SDS011;61465;53.652;9.792;2022-09-11T16:11:09;1.17;;;1.08;;
30243;SDS011;61465;53.652;9.792;2022-09-11T16:13:35;16.88;;;8.40;;
30243;SDS011;61465;53.652;9.792;2022-09-11T16:16:04;1.73;;;1.40;;
30243;SDS011;61465;53.652;9.792;2022-09-11T16:18:35;1.60;;;1.30;;
30243;SDS011;61465;53.652;9.792;2022-09-11T16:21:05;2.47;;;2.20;;
30243;SDS011;61465;53.652;9.792;2022-09-11T16:23:32;3.00;;;2.25;;
30243;SDS011;61465;53.652;9.792;2022-09-11T16:26:06;3.70;;;1.60;;
30243;SDS011;61465;53.652;9.792;2022-09-11T16:28:33;1.83;;;1.20;;
30243;SDS011;61465;53.652;9.792;2022-09-11T16:31:00;1.10;;;1.00;;
30243;SDS011;61465;53.652;9.792;2022-09-11T16:33:26;1.83;;;1.40;;
30243;SDS011;61465;53.652;9.792;2022-09-11T16:35:59;1.55;;;1.00;;
30243;SDS011;61465;53.652;9.792;2022-09-11T16:38:30;1.63;;;1.17;;
30243;SDS011;61465;53.652;9.792;2022-09-11T16:41:03;1.50;;;0.98;;
30243;SDS011;61465;53.652;9.792;2022-09-11T16:43:41;3.60;;;1.70;;
30243;SDS011;61465;53.652;9.792;2022-09-11T16:46:09;8.98;;;5.18;;
30243;SDS011;61465;53.652;9.792;2022-09-11T16:48:37;2.63;;;1.90;;
30243;SDS011;61465;53.652;9.792;2022-09-11T16:51:03;2.85;;;2.10;;
30243;SDS011;61465;53.652;9.792;2022-09-11T16:53:30;3.00;;;1.50;;
30243;SDS011;61465;53.652;9.792;2022-09-11T16:55:57;4.03;;;1.40;;
30243;SDS011;61465;53.652;9.792;2022-09-11T16:58:26;4.10;;;1.30;;
30243;SDS011;61465;53.652;9.792;2022-09-11T17:00:53;2.13;;;1.52;;
30243;SDS011;61465;53.652;9.792;2022-09-11T17:03:19;7.77;;;3.17;;
30243;SDS011;61465;53.652;9.792;2022-09-11T17:05:47;4.35;;;1.63;;
30243;SDS011;61465;53.652;9.792;2022-09-11T17:08:14;2.15;;;1.70;;
30243;SDS011;61465;53.652;9.792;2022-09-11T17:10:43;3.88;;;2.45;;
30243;SDS011;61465;53.652;9.792;2022-09-11T17:13:11;2.05;;;1.65;;
30243;SDS011;61465;53.652;9.792;2022-09-11T17:15:37;2.03;;;1.33;;
30243;SDS011;61465;53.652;9.792;2022-09-11T17:18:04;2.80;;;1.70;;
30243;SDS011;61465;53.652;9.792;2022-09-11T17:20:30;1.50;;;1.40;;
30243;SDS011;61465;53.652;9.792;2022-09-11T17:22:56;1.60;;;1.47;;
30243;SDS011;61465;53.652;9.792;2022-09-11T17:25:22;2.67;;;1.80;;
30243;SDS011;61465;53.652;9.792;2022-09-11T17:30:14;2.30;;;1.73;;
30243;SDS011;61465;53.652;9.792;2022-09-11T17:32:41;7.28;;;2.10;;